Headquarters, Valles Caldera, New Mexico Weather observations

Data are for 10 minute period ending at time listed.
 Day   Time   Solar   Ave.   Ave.  Ave.  Vector  Max.   Baro.   Total    
  of    of     Rad.   Air    Rel.  Wind   Wind   Wind  Press.  Precip.   
Year   Day            Temp.  Hum.  Speed  Dir.   Gust                    
2015   (MST)  Kw/m2    F      %     mph   deg.    mph    mb.     in.     
-------------------------------------------------------------------------
 116    0:00   0.00   31.2    82    3.8   283     6.0   732.3    0.00 
 116    0:10   0.00   32.0    82    4.8   263     9.0   732.3    0.00 
 116    0:20   0.00   35.3    73    7.2   244    13.7   732.3    0.00 
 116    0:30   0.00   37.4    66    3.5   264     7.8   732.1    0.00 
 116    0:40   0.00   37.7    64    6.0   247    10.8   732.0    0.00 
 116    0:50   0.00   38.0    64    9.1   231    15.5   732.0    0.00 
 116    1:00   0.00   36.7    73   10.9   232    19.7   732.0    0.00 
 116    1:10   0.00   34.5    83   11.5   234    19.7   732.1    0.01 
 116    1:20   0.00   33.2    89   10.9   231    19.1   732.1    0.00 
 116    1:30   0.00   32.8    91    8.8   235    14.3   732.0    0.01 
 116    1:40   0.00   32.8    91    5.5   236    14.3   731.9    0.00 
 116    1:50   0.00   32.7    91    0.3   230     3.0   731.6    0.01 
 116    2:00   0.00   32.5    92    0.0   129     1.2   731.5    0.01 
 116    2:10   0.00   32.4    92    0.0     0     0.0   731.4    0.00 
 116    2:20   0.00   31.9    93    0.0     0     0.0   731.2    0.00 
 116    2:30   0.00   31.8    93    0.0     0     0.0   731.1    0.00 
 116    2:40   0.00   31.8    93    0.0     0     0.0   730.9    0.00 
 116    2:50   0.00   31.3    93    0.0     0     0.0   730.9    0.00 
 116    3:00   0.00   31.2    94    0.0     0     0.0   730.8    0.00 
 116    3:10   0.00   31.5    94    0.0     0     0.0   730.8    0.00 
 116    3:20   100.00  99999.0   99999  99999.0   99999   99999.0   99999.0   99999.00 
 116    3:30   100.00  99999.0   99999  99999.0   99999   99999.0   99999.0   99999.00 
 116    3:40   100.00  99999.0   99999  99999.0   99999   99999.0   99999.0   99999.00 
 116    3:50   100.00  99999.0   99999  99999.0   99999   99999.0   99999.0   99999.00 
 116    4:00   100.00  99999.0   99999  99999.0   99999   99999.0   99999.0   99999.00 
 116    4:10   100.00  99999.0   99999  99999.0   99999   99999.0   99999.0   99999.00 
 116    4:20   0.00   31.7    94    0.0     0     0.0   730.3    0.01 
 116    4:30   0.00   31.7    95    0.0     0     0.0   730.3    0.00 
 116    4:40   0.00   31.7    95    0.0     0     0.0   730.3    0.02 
 116    4:50   0.00   31.6    95    0.0     0     0.0   730.1    0.01 
 116    5:00   0.00   31.6    95    0.0     0     0.0   730.1    0.02 
 116    5:10   0.00   31.6    95    0.0     0     0.0   730.1    0.00 
 116    5:20   0.00   31.7    95    0.0     0     0.0   730.1    0.02 
 116    5:30   0.00   31.7    95    0.0     0     0.0   730.1    0.03 
 116    5:40   0.00   31.7    95    0.0     0     0.0   730.0    0.02 
 116    5:50   0.00   31.6    95    0.0     0     0.0   730.1    0.01 
 116    6:00   0.00   31.7    95    0.0     0     0.0   730.1    0.00 
 116    6:10   0.00   31.8    95    0.0     0     0.0   730.1    0.00 
 116    6:20   0.01   31.9    95    0.0     0     0.0   730.1    0.00 
 116    6:30   0.01   32.1    95    0.0     0     0.0   730.1    0.00 
 116    6:40   0.01   32.4    95    0.0     0     0.0   730.1    0.00 
 116    6:50   0.02   32.9    95    0.0   172     1.2   729.9    0.00 
 116    7:00   0.02   32.7    95    0.0     0     0.0   729.8    0.00 
 116    7:10   0.02   32.6    95    0.0     0     0.0   729.8    0.00 
 116    7:20   100.00  99999.0   99999  99999.0   99999   99999.0   99999.0   99999.00 
 116    7:30   100.00  99999.0   99999  99999.0   99999   99999.0   99999.0   99999.00 
 116    7:40   100.00  99999.0   99999  99999.0   99999   99999.0   99999.0   99999.00 
 116    7:50   100.00  99999.0   99999  99999.0   99999   99999.0   99999.0   99999.00 
 116    8:00   100.00  99999.0   99999  99999.0   99999   99999.0   99999.0   99999.00 
 116    8:10   100.00  99999.0   99999  99999.0   99999   99999.0   99999.0   99999.00 
 116    8:20   100.00  99999.0   99999  99999.0   99999   99999.0   99999.0   99999.00 
 116    8:30   100.00  99999.0   99999  99999.0   99999   99999.0   99999.0   99999.00 
 116    8:40   100.00  99999.0   99999  99999.0   99999   99999.0   99999.0   99999.00 
 116    8:50   100.00  99999.0   99999  99999.0   99999   99999.0   99999.0   99999.00 
 116    9:00   100.00  99999.0   99999  99999.0   99999   99999.0   99999.0   99999.00 
 116    9:10   100.00  99999.0   99999  99999.0   99999   99999.0   99999.0   99999.00 
 116    9:20   100.00  99999.0   99999  99999.0   99999   99999.0   99999.0   99999.00 
 116    9:30   100.00  99999.0   99999  99999.0   99999   99999.0   99999.0   99999.00 
 116    9:40   100.00  99999.0   99999  99999.0   99999   99999.0   99999.0   99999.00 
 116    9:50   100.00  99999.0   99999  99999.0   99999   99999.0   99999.0   99999.00 
 116   10:00   100.00  99999.0   99999  99999.0   99999   99999.0   99999.0   99999.00 
 116   10:10   100.00  99999.0   99999  99999.0   99999   99999.0   99999.0   99999.00 
 116   10:20   0.02   31.9    92    0.0    38     1.2   729.6    0.01 
 116   10:30   0.03   33.3    92    0.0     0     0.0   729.6    0.00 
 116   10:40   0.04   35.3    86    0.0     0     0.0   729.6    0.01 
 116   10:50   0.04   36.9    80    0.0    53     1.2   729.5    0.00 
 116   11:00   0.03   39.2    76    0.0     0     0.0   729.4    0.00 
 116   11:10   0.04   38.0    73    0.0     0     0.0   729.4    0.01 
 116   11:20   0.06   35.6    80    0.9    78     3.0   729.4    0.00 
 116   11:30   0.04   34.8    81    2.6    32     3.6   729.4    0.00 
 116   11:40   0.05   34.9    82    2.3    74     3.6   729.2    0.00 
 116   11:50   0.06   35.4    81    3.0    72     5.4   729.2    0.00 
 116   12:00   0.09   35.6    79    4.3    52     6.6   729.2    0.00 
 116   12:10   0.14   36.4    78    4.8    64     6.0   729.1    0.00 
 116   12:20   0.24   37.9    75    4.3    65     5.4   729.2    0.00 
 116   12:30   0.34   39.3    71    4.2    43     6.0   729.2    0.00 
 116   12:40   0.22   37.3    75    4.7    68     5.4   729.2    0.00 
 116   12:50   0.18   35.3    81    3.9    92     4.8   729.3    0.00 
 116   13:00   0.19   35.1    82    4.0    88     4.8   729.3    0.00 
 116   13:10   0.19   34.9    82    3.4    75     4.8   729.3    0.00 
 116   13:20   0.17   35.1    82    3.2    44     4.2   729.4    0.00 
 116   13:30   0.15   34.9    84    2.4    44     3.6   729.3    0.01 
 116   13:40   0.17   36.0    82    1.4    18     1.8   729.4    0.01 
 116   13:50   0.15   36.4    79    1.7    12     2.4   729.4    0.00 
 116   14:00   0.13   35.7    82    2.5    59     4.2   729.4    0.01 
 116   14:10   0.12   35.9    85    2.0   272     3.0   729.4    0.01 
 116   14:20   0.11   35.1    84    2.4   341     3.6   729.4    0.01 
 116   14:30   0.15   34.8    86    2.9   314     4.2   729.3    0.00 
 116   14:40   0.20   36.7    84    2.3   280     4.2   729.2    0.00 
 116   14:50   0.26   39.2    77    2.3   202     4.2   729.2    0.00 
 116   15:00   0.22   36.3    82    3.0    90     3.6   729.3    0.00 
 116   15:10   0.21   35.7    85    2.1    87     3.0   729.3    0.00 
 116   15:20   0.20   36.3    84    1.6    35     2.4   729.3    0.00 
 116   15:30   0.17   35.6    84    1.9   336     3.0   729.3    0.01 
 116   15:40   0.11   36.0    86    2.1   229     4.2   729.4    0.01 
 116   15:50   0.07   35.1    85    2.8   206     4.2   729.5    0.00 
 116   16:00   0.09   34.4    87    4.3   222     6.6   729.5    0.01 
 116   16:10   0.10   34.0    88    5.7   221     8.4   729.5    0.01 
 116   16:20   0.10   33.8    89    5.1   212     7.8   729.5    0.01 
 116   16:30   0.11   34.2    90    3.1   199     5.4   729.6    0.01 
 116   16:40   0.11   34.8    89    2.0   217     3.0   729.7    0.02 
 116   16:50   0.09   35.6    87    2.3   233     3.6   729.7    0.00 
 116   17:00   0.06   35.4    85    3.0   223     5.4   729.8    0.00 
 116   17:10   0.05   34.7    87    3.9   223     4.8   729.8    0.00 
 116   17:20   0.04   34.5    88    2.7   213     4.2   729.9    0.00 
 116   17:30   0.03   34.5    89    1.1   224     3.6   730.0    0.00 
 116   17:40   0.03   34.3    89    1.7   178     3.6   730.1    0.00 
 116   17:50   0.02   33.9    90    1.1    96     3.0   730.2    0.00 
 116   18:00   0.01   33.6    90    0.9   109     2.4   730.2    0.00 
 116   18:10   0.01   32.9    91    1.0    97     2.4   730.3    0.01 
 116   18:20   0.01   32.7    92    1.1   356     2.4   730.5    0.00 
 116   18:30   0.01   32.5    93    1.8   356     2.4   730.6    0.00 
 116   18:40   0.00   32.5    93    1.7   323     2.4   730.6    0.00 
 116   18:50   0.00   32.4    93    1.8   216     2.4   730.8    0.00 
 116   19:00   0.00   32.0    93    1.9   212     3.0   730.9    0.00 
 116   19:10   0.00   31.9    94    0.0     0     0.0   730.9    0.00 
 116   19:20   0.00   32.0    94    0.0     0     0.0   731.1    0.00 
 116   19:30   0.00   31.8    94    0.0     0     0.0   731.1    0.00 
 116   19:40   0.00   31.6    94    0.0     0     0.0   731.4    0.00 
 116   19:50   0.00   32.1    94    0.0     0     0.0   731.6    0.00 
 116   20:00   0.00   32.3    94    0.0     0     0.0   731.6    0.00 
 116   20:10   0.00   32.0    94    0.0     0     0.0   731.7    0.00 
 116   20:20   0.00   31.8    94    0.0     0     0.0   731.8    0.00 
 116   20:30   0.00   31.7    94    0.0     0     0.0   731.8    0.00 
 116   20:40   0.00   31.1    94    0.0     0     0.0   731.9    0.00 
 116   20:50   0.00   31.3    95    0.0     0     0.0   732.0    0.00 
 116   21:00   0.00   30.9    95    0.0     0     0.0   732.1    0.00 
 116   21:10   0.00   31.1    95    0.0     0     0.0   732.2    0.00 
 116   21:20   0.00   31.2    95    0.0     0     0.0   732.5    0.00 
 116   21:30   0.00   31.0    95    0.0     0     0.0   732.4    0.00 
 116   21:40   0.00   31.0    95    0.0     0     0.0   732.4    0.00 
 116   21:50   0.00   30.9    95    0.0     0     0.0   732.5    0.00 
 116   22:00   0.00   30.8    95    0.0     0     0.0   732.6    0.00 
 116   22:10   0.00   30.9    95    0.0     0     0.0   732.6    0.00 
 116   22:20   0.00   30.8    95    0.0     0     0.0   732.7    0.00 
 116   22:30   0.00   30.6    95    0.0     0     0.0   732.8    0.00 
 116   22:40   0.00   30.5    95    0.0     0     0.0   732.9    0.00 
 116   22:50   0.00   30.8    95    0.0     0     0.0   733.0    0.00 
 116   23:00   0.00   31.1    94    0.0     0     0.0   733.2    0.00 
 116   23:10   0.00   32.6    92    0.0     0     0.0   733.3    0.00 

Return to Headquarters, Valles Caldera graphs page.


Western Regional Climate Center,wrcc@dri.edu